sensor_id;sensor_type;location;lat;lon;timestamp;P1;durP1;ratioP1;P2;durP2;ratioP2
19414;SDS011;9843;48.882;12.592;2022-09-30T00:00:19;9.63;;;8.73;;
19414;SDS011;9843;48.882;12.592;2022-09-30T00:02:47;8.57;;;7.70;;
19414;SDS011;9843;48.882;12.592;2022-09-30T00:05:14;10.07;;;9.17;;
19414;SDS011;9843;48.882;12.592;2022-09-30T00:07:41;11.57;;;9.20;;
19414;SDS011;9843;48.882;12.592;2022-09-30T00:10:08;10.03;;;9.13;;
19414;SDS011;9843;48.882;12.592;2022-09-30T00:12:35;8.23;;;7.43;;
19414;SDS011;9843;48.882;12.592;2022-09-30T00:15:02;9.73;;;8.90;;
19414;SDS011;9843;48.882;12.592;2022-09-30T00:17:30;13.03;;;9.40;;
19414;SDS011;9843;48.882;12.592;2022-09-30T00:19:57;14.43;;;9.87;;
19414;SDS011;9843;48.882;12.592;2022-09-30T00:22:24;9.67;;;8.67;;
19414;SDS011;9843;48.882;12.592;2022-09-30T00:24:51;8.87;;;8.07;;
19414;SDS011;9843;48.882;12.592;2022-09-30T00:27:17;9.17;;;8.27;;
19414;SDS011;9843;48.882;12.592;2022-09-30T00:29:45;9.90;;;8.90;;
19414;SDS011;9843;48.882;12.592;2022-09-30T00:32:12;20.67;;;11.10;;
19414;SDS011;9843;48.882;12.592;2022-09-30T00:34:40;10.30;;;9.30;;
19414;SDS011;9843;48.882;12.592;2022-09-30T00:37:07;11.17;;;10.07;;
19414;SDS011;9843;48.882;12.592;2022-09-30T00:39:35;9.87;;;8.50;;
19414;SDS011;9843;48.882;12.592;2022-09-30T00:42:03;12.10;;;10.67;;
19414;SDS011;9843;48.882;12.592;2022-09-30T00:44:45;11.13;;;9.70;;
19414;SDS011;9843;48.882;12.592;2022-09-30T00:47:25;11.07;;;9.20;;
19414;SDS011;9843;48.882;12.592;2022-09-30T00:50:13;10.47;;;9.47;;
19414;SDS011;9843;48.882;12.592;2022-09-30T00:52:51;9.77;;;8.77;;
19414;SDS011;9843;48.882;12.592;2022-09-30T00:55:23;11.07;;;9.93;;
19414;SDS011;9843;48.882;12.592;2022-09-30T00:57:55;12.10;;;10.73;;
19414;SDS011;9843;48.882;12.592;2022-09-30T01:00:24;13.27;;;11.43;;
19414;SDS011;9843;48.882;12.592;2022-09-30T01:02:51;12.37;;;11.07;;
19414;SDS011;9843;48.882;12.592;2022-09-30T01:05:20;11.97;;;10.20;;
19414;SDS011;9843;48.882;12.592;2022-09-30T01:07:49;15.93;;;13.43;;
19414;SDS011;9843;48.882;12.592;2022-09-30T01:10:16;12.23;;;10.80;;
19414;SDS011;9843;48.882;12.592;2022-09-30T01:12:43;14.90;;;12.23;;
19414;SDS011;9843;48.882;12.592;2022-09-30T01:15:10;12.33;;;10.97;;
19414;SDS011;9843;48.882;12.592;2022-09-30T01:17:40;13.97;;;11.90;;
19414;SDS011;9843;48.882;12.592;2022-09-30T01:20:24;12.93;;;11.63;;
19414;SDS011;9843;48.882;12.592;2022-09-30T01:23:23;12.33;;;11.03;;
19414;SDS011;9843;48.882;12.592;2022-09-30T01:26:20;14.07;;;11.10;;
19414;SDS011;9843;48.882;12.592;2022-09-30T01:29:08;18.57;;;12.73;;
19414;SDS011;9843;48.882;12.592;2022-09-30T01:32:06;10.90;;;9.97;;
19414;SDS011;9843;48.882;12.592;2022-09-30T01:34:44;14.43;;;11.50;;
19414;SDS011;9843;48.882;12.592;2022-09-30T01:37:22;13.37;;;12.07;;
19414;SDS011;9843;48.882;12.592;2022-09-30T01:39:59;11.70;;;10.50;;
19414;SDS011;9843;48.882;12.592;2022-09-30T01:42:33;13.97;;;12.07;;
19414;SDS011;9843;48.882;12.592;2022-09-30T01:45:07;11.73;;;10.43;;
19414;SDS011;9843;48.882;12.592;2022-09-30T01:47:42;13.67;;;11.20;;
19414;SDS011;9843;48.882;12.592;2022-09-30T01:50:14;13.40;;;10.83;;
19414;SDS011;9843;48.882;12.592;2022-09-30T01:52:48;11.53;;;10.33;;
19414;SDS011;9843;48.882;12.592;2022-09-30T01:55:22;12.57;;;10.50;;
19414;SDS011;9843;48.882;12.592;2022-09-30T01:57:55;12.40;;;10.17;;
19414;SDS011;9843;48.882;12.592;2022-09-30T02:00:26;12.10;;;9.80;;
19414;SDS011;9843;48.882;12.592;2022-09-30T02:02:57;12.63;;;11.40;;
19414;SDS011;9843;48.882;12.592;2022-09-30T02:05:28;11.60;;;10.23;;
19414;SDS011;9843;48.882;12.592;2022-09-30T02:08:02;18.70;;;11.90;;
19414;SDS011;9843;48.882;12.592;2022-09-30T02:10:34;14.03;;;10.00;;
19414;SDS011;9843;48.882;12.592;2022-09-30T02:13:07;11.37;;;9.97;;
19414;SDS011;9843;48.882;12.592;2022-09-30T02:15:40;14.23;;;10.87;;
19414;SDS011;9843;48.882;12.592;2022-09-30T02:18:12;11.10;;;9.53;;
19414;SDS011;9843;48.882;12.592;2022-09-30T02:20:44;11.20;;;10.07;;
19414;SDS011;9843;48.882;12.592;2022-09-30T02:23:16;11.00;;;9.83;;
19414;SDS011;9843;48.882;12.592;2022-09-30T02:25:50;11.97;;;10.77;;
19414;SDS011;9843;48.882;12.592;2022-09-30T02:28:21;13.47;;;9.93;;
19414;SDS011;9843;48.882;12.592;2022-09-30T02:30:52;10.97;;;9.97;;
19414;SDS011;9843;48.882;12.592;2022-09-30T02:33:23;12.53;;;11.20;;
19414;SDS011;9843;48.882;12.592;2022-09-30T02:35:57;13.53;;;10.33;;
19414;SDS011;9843;48.882;12.592;2022-09-30T02:38:31;16.53;;;11.43;;
19414;SDS011;9843;48.882;12.592;2022-09-30T02:41:05;14.70;;;10.63;;
19414;SDS011;9843;48.882;12.592;2022-09-30T02:43:36;11.93;;;10.60;;
19414;SDS011;9843;48.882;12.592;2022-09-30T02:46:07;11.87;;;10.50;;
19414;SDS011;9843;48.882;12.592;2022-09-30T02:48:43;10.90;;;9.87;;
19414;SDS011;9843;48.882;12.592;2022-09-30T02:51:14;11.17;;;10.03;;
19414;SDS011;9843;48.882;12.592;2022-09-30T02:53:45;10.13;;;9.13;;
19414;SDS011;9843;48.882;12.592;2022-09-30T02:56:21;16.50;;;10.73;;
19414;SDS011;9843;48.882;12.592;2022-09-30T02:58:53;14.17;;;9.93;;
19414;SDS011;9843;48.882;12.592;2022-09-30T03:01:22;12.87;;;11.47;;
19414;SDS011;9843;48.882;12.592;2022-09-30T03:03:52;12.63;;;11.40;;
19414;SDS011;9843;48.882;12.592;2022-09-30T03:06:20;14.27;;;10.77;;
19414;SDS011;9843;48.882;12.592;2022-09-30T03:08:48;11.70;;;10.63;;
19414;SDS011;9843;48.882;12.592;2022-09-30T03:11:17;15.00;;;10.93;;
19414;SDS011;9843;48.882;12.592;2022-09-30T03:13:54;11.37;;;10.20;;
19414;SDS011;9843;48.882;12.592;2022-09-30T03:17:05;12.37;;;10.10;;
19414;SDS011;9843;48.882;12.592;2022-09-30T03:19:51;10.77;;;9.67;;
19414;SDS011;9843;48.882;12.592;2022-09-30T03:22:36;11.17;;;9.97;;
19414;SDS011;9843;48.882;12.592;2022-09-30T03:25:17;10.30;;;9.27;;
19414;SDS011;9843;48.882;12.592;2022-09-30T03:27:59;9.50;;;8.70;;
19414;SDS011;9843;48.882;12.592;2022-09-30T03:30:32;10.63;;;9.53;;
19414;SDS011;9843;48.882;12.592;2022-09-30T03:33:07;10.20;;;9.20;;
19414;SDS011;9843;48.882;12.592;2022-09-30T03:35:44;10.83;;;9.73;;
19414;SDS011;9843;48.882;12.592;2022-09-30T03:38:21;11.17;;;10.07;;
19414;SDS011;9843;48.882;12.592;2022-09-30T03:40:57;10.53;;;9.43;;
19414;SDS011;9843;48.882;12.592;2022-09-30T03:43:30;17.83;;;10.10;;
19414;SDS011;9843;48.882;12.592;2022-09-30T03:46:01;13.27;;;10.37;;
19414;SDS011;9843;48.882;12.592;2022-09-30T03:48:33;12.03;;;10.37;;
19414;SDS011;9843;48.882;12.592;2022-09-30T03:51:04;12.20;;;9.77;;
19414;SDS011;9843;48.882;12.592;2022-09-30T03:53:36;11.03;;;9.93;;
19414;SDS011;9843;48.882;12.592;2022-09-30T03:56:04;10.07;;;9.17;;
19414;SDS011;9843;48.882;12.592;2022-09-30T03:58:31;12.90;;;11.53;;
19414;SDS011;9843;48.882;12.592;2022-09-30T04:00:58;10.13;;;9.23;;
19414;SDS011;9843;48.882;12.592;2022-09-30T04:03:24;9.90;;;8.97;;
19414;SDS011;9843;48.882;12.592;2022-09-30T04:05:52;11.67;;;9.27;;
19414;SDS011;9843;48.882;12.592;2022-09-30T04:08:20;11.60;;;10.00;;
19414;SDS011;9843;48.882;12.592;2022-09-30T04:10:48;16.50;;;10.83;;
19414;SDS011;9843;48.882;12.592;2022-09-30T04:13:14;12.13;;;10.10;;
19414;SDS011;9843;48.882;12.592;2022-09-30T04:15:41;11.87;;;10.57;;
19414;SDS011;9843;48.882;12.592;2022-09-30T04:18:08;11.47;;;10.47;;
19414;SDS011;9843;48.882;12.592;2022-09-30T04:20:37;14.67;;;11.43;;
19414;SDS011;9843;48.882;12.592;2022-09-30T04:23:04;15.93;;;10.73;;
19414;SDS011;9843;48.882;12.592;2022-09-30T04:25:32;12.27;;;10.33;;
19414;SDS011;9843;48.882;12.592;2022-09-30T04:27:59;10.13;;;9.07;;
19414;SDS011;9843;48.882;12.592;2022-09-30T04:30:26;12.50;;;10.70;;
19414;SDS011;9843;48.882;12.592;2022-09-30T04:32:53;11.73;;;9.90;;
19414;SDS011;9843;48.882;12.592;2022-09-30T04:35:19;11.03;;;9.20;;
19414;SDS011;9843;48.882;12.592;2022-09-30T04:37:46;12.17;;;10.43;;
19414;SDS011;9843;48.882;12.592;2022-09-30T04:40:14;12.63;;;11.33;;
19414;SDS011;9843;48.882;12.592;2022-09-30T04:42:43;12.97;;;10.80;;
19414;SDS011;9843;48.882;12.592;2022-09-30T04:45:12;13.07;;;10.50;;
19414;SDS011;9843;48.882;12.592;2022-09-30T04:47:41;14.03;;;10.53;;
19414;SDS011;9843;48.882;12.592;2022-09-30T04:50:09;14.00;;;10.40;;
19414;SDS011;9843;48.882;12.592;2022-09-30T04:52:36;18.67;;;10.50;;
19414;SDS011;9843;48.882;12.592;2022-09-30T04:55:03;11.97;;;9.47;;
19414;SDS011;9843;48.882;12.592;2022-09-30T04:57:31;14.60;;;10.63;;
19414;SDS011;9843;48.882;12.592;2022-09-30T04:59:59;14.43;;;10.00;;
19414;SDS011;9843;48.882;12.592;2022-09-30T05:02:26;13.50;;;11.97;;
19414;SDS011;9843;48.882;12.592;2022-09-30T05:04:53;11.00;;;9.93;;
19414;SDS011;9843;48.882;12.592;2022-09-30T05:07:20;11.17;;;10.00;;
19414;SDS011;9843;48.882;12.592;2022-09-30T05:09:47;12.73;;;11.03;;
19414;SDS011;9843;48.882;12.592;2022-09-30T05:12:13;13.03;;;10.60;;
19414;SDS011;9843;48.882;12.592;2022-09-30T05:14:40;13.00;;;11.10;;
19414;SDS011;9843;48.882;12.592;2022-09-30T05:17:08;11.33;;;10.10;;
19414;SDS011;9843;48.882;12.592;2022-09-30T05:19:35;13.27;;;11.90;;
19414;SDS011;9843;48.882;12.592;2022-09-30T05:22:02;11.60;;;10.23;;
19414;SDS011;9843;48.882;12.592;2022-09-30T05:24:29;14.80;;;10.43;;
19414;SDS011;9843;48.882;12.592;2022-09-30T05:26:55;11.07;;;9.70;;
19414;SDS011;9843;48.882;12.592;2022-09-30T05:29:22;14.83;;;12.47;;
19414;SDS011;9843;48.882;12.592;2022-09-30T05:31:49;13.27;;;11.33;;
19414;SDS011;9843;48.882;12.592;2022-09-30T05:34:17;17.77;;;11.50;;
19414;SDS011;9843;48.882;12.592;2022-09-30T05:36:45;18.37;;;11.30;;
19414;SDS011;9843;48.882;12.592;2022-09-30T05:39:12;15.17;;;12.03;;
19414;SDS011;9843;48.882;12.592;2022-09-30T05:41:39;11.77;;;10.57;;
19414;SDS011;9843;48.882;12.592;2022-09-30T05:44:06;17.50;;;15.67;;
19414;SDS011;9843;48.882;12.592;2022-09-30T05:46:34;14.80;;;11.93;;
19414;SDS011;9843;48.882;12.592;2022-09-30T05:49:01;13.90;;;11.47;;
19414;SDS011;9843;48.882;12.592;2022-09-30T05:51:29;13.53;;;11.80;;
19414;SDS011;9843;48.882;12.592;2022-09-30T05:53:56;12.27;;;11.00;;
19414;SDS011;9843;48.882;12.592;2022-09-30T05:56:23;13.53;;;10.80;;
19414;SDS011;9843;48.882;12.592;2022-09-30T05:58:50;14.83;;;11.83;;
19414;SDS011;9843;48.882;12.592;2022-09-30T06:01:17;11.00;;;9.67;;
19414;SDS011;9843;48.882;12.592;2022-09-30T06:03:44;12.43;;;10.73;;
19414;SDS011;9843;48.882;12.592;2022-09-30T06:06:12;13.10;;;10.43;;
19414;SDS011;9843;48.882;12.592;2022-09-30T06:08:41;13.20;;;10.70;;
19414;SDS011;9843;48.882;12.592;2022-09-30T06:11:09;14.93;;;11.23;;
19414;SDS011;9843;48.882;12.592;2022-09-30T06:13:37;16.40;;;12.87;;
19414;SDS011;9843;48.882;12.592;2022-09-30T06:16:05;27.80;;;11.93;;
19414;SDS011;9843;48.882;12.592;2022-09-30T06:18:33;12.30;;;11.03;;
19414;SDS011;9843;48.882;12.592;2022-09-30T06:21:02;12.77;;;11.43;;
19414;SDS011;9843;48.882;12.592;2022-09-30T06:23:30;14.83;;;11.67;;
19414;SDS011;9843;48.882;12.592;2022-09-30T06:26:00;13.97;;;12.57;;
19414;SDS011;9843;48.882;12.592;2022-09-30T06:28:28;13.80;;;11.30;;
19414;SDS011;9843;48.882;12.592;2022-09-30T06:30:55;12.90;;;11.10;;
19414;SDS011;9843;48.882;12.592;2022-09-30T06:33:21;18.83;;;11.57;;
19414;SDS011;9843;48.882;12.592;2022-09-30T06:35:49;15.13;;;12.90;;
19414;SDS011;9843;48.882;12.592;2022-09-30T06:38:16;14.80;;;11.17;;
19414;SDS011;9843;48.882;12.592;2022-09-30T06:40:43;13.40;;;12.10;;
19414;SDS011;9843;48.882;12.592;2022-09-30T06:43:14;15.03;;;11.27;;
19414;SDS011;9843;48.882;12.592;2022-09-30T06:45:41;15.23;;;10.73;;
19414;SDS011;9843;48.882;12.592;2022-09-30T06:48:10;15.30;;;10.50;;
19414;SDS011;9843;48.882;12.592;2022-09-30T06:50:37;14.87;;;10.07;;
19414;SDS011;9843;48.882;12.592;2022-09-30T06:53:05;13.13;;;9.33;;
19414;SDS011;9843;48.882;12.592;2022-09-30T06:55:33;20.17;;;13.10;;
19414;SDS011;9843;48.882;12.592;2022-09-30T06:58:03;12.63;;;8.63;;
19414;SDS011;9843;48.882;12.592;2022-09-30T07:00:33;8.90;;;8.10;;
19414;SDS011;9843;48.882;12.592;2022-09-30T07:03:01;9.13;;;8.20;;
19414;SDS011;9843;48.882;12.592;2022-09-30T07:05:29;12.70;;;9.30;;
19414;SDS011;9843;48.882;12.592;2022-09-30T07:07:56;11.83;;;9.03;;
19414;SDS011;9843;48.882;12.592;2022-09-30T07:10:24;12.43;;;8.43;;
19414;SDS011;9843;48.882;12.592;2022-09-30T07:12:51;18.93;;;9.80;;
19414;SDS011;9843;48.882;12.592;2022-09-30T07:15:19;7.57;;;6.87;;
19414;SDS011;9843;48.882;12.592;2022-09-30T07:17:50;9.70;;;8.80;;
19414;SDS011;9843;48.882;12.592;2022-09-30T07:20:17;10.93;;;7.63;;
19414;SDS011;9843;48.882;12.592;2022-09-30T07:22:44;9.17;;;8.20;;
19414;SDS011;9843;48.882;12.592;2022-09-30T07:25:11;9.40;;;8.50;;
19414;SDS011;9843;48.882;12.592;2022-09-30T07:27:38;11.33;;;9.30;;
19414;SDS011;9843;48.882;12.592;2022-09-30T07:30:06;15.73;;;10.47;;
19414;SDS011;9843;48.882;12.592;2022-09-30T07:32:33;11.67;;;8.97;;
19414;SDS011;9843;48.882;12.592;2022-09-30T07:35:02;13.17;;;9.20;;
19414;SDS011;9843;48.882;12.592;2022-09-30T07:37:29;9.13;;;8.07;;
19414;SDS011;9843;48.882;12.592;2022-09-30T07:40:00;12.17;;;8.33;;
19414;SDS011;9843;48.882;12.592;2022-09-30T07:42:28;8.63;;;7.73;;
19414;SDS011;9843;48.882;12.592;2022-09-30T07:44:56;7.57;;;6.73;;
19414;SDS011;9843;48.882;12.592;2022-09-30T07:47:22;9.50;;;8.43;;
19414;SDS011;9843;48.882;12.592;2022-09-30T07:49:49;15.63;;;8.87;;
19414;SDS011;9843;48.882;12.592;2022-09-30T07:52:18;13.43;;;8.60;;
19414;SDS011;9843;48.882;12.592;2022-09-30T07:54:45;9.93;;;7.03;;
19414;SDS011;9843;48.882;12.592;2022-09-30T07:57:12;10.13;;;8.70;;
19414;SDS011;9843;48.882;12.592;2022-09-30T07:59:39;9.93;;;8.97;;
19414;SDS011;9843;48.882;12.592;2022-09-30T08:02:07;7.40;;;6.57;;
19414;SDS011;9843;48.882;12.592;2022-09-30T08:04:38;9.03;;;7.83;;
19414;SDS011;9843;48.882;12.592;2022-09-30T08:07:05;8.97;;;7.00;;
19414;SDS011;9843;48.882;12.592;2022-09-30T08:09:33;9.80;;;7.80;;
19414;SDS011;9843;48.882;12.592;2022-09-30T08:12:01;8.03;;;7.20;;
19414;SDS011;9843;48.882;12.592;2022-09-30T08:14:28;9.60;;;6.30;;
19414;SDS011;9843;48.882;12.592;2022-09-30T08:16:55;9.73;;;7.63;;
19414;SDS011;9843;48.882;12.592;2022-09-30T08:19:24;6.73;;;6.07;;
19414;SDS011;9843;48.882;12.592;2022-09-30T08:21:52;10.23;;;7.20;;
19414;SDS011;9843;48.882;12.592;2022-09-30T08:24:19;11.93;;;7.77;;
19414;SDS011;9843;48.882;12.592;2022-09-30T08:26:48;8.37;;;7.07;;
19414;SDS011;9843;48.882;12.592;2022-09-30T08:29:14;7.53;;;6.53;;
19414;SDS011;9843;48.882;12.592;2022-09-30T08:31:41;8.17;;;6.97;;
19414;SDS011;9843;48.882;12.592;2022-09-30T08:34:08;6.30;;;5.70;;
19414;SDS011;9843;48.882;12.592;2022-09-30T08:36:35;8.03;;;6.40;;
19414;SDS011;9843;48.882;12.592;2022-09-30T08:39:02;5.97;;;5.37;;
19414;SDS011;9843;48.882;12.592;2022-09-30T08:44:31;9.00;;;6.07;;
19414;SDS011;9843;48.882;12.592;2022-09-30T08:47:11;6.67;;;5.97;;
19414;SDS011;9843;48.882;12.592;2022-09-30T08:49:56;11.03;;;6.20;;
19414;SDS011;9843;48.882;12.592;2022-09-30T08:52:30;13.33;;;7.43;;
19414;SDS011;9843;48.882;12.592;2022-09-30T08:55:00;8.87;;;5.40;;
19414;SDS011;9843;48.882;12.592;2022-09-30T08:57:31;7.80;;;5.13;;
19414;SDS011;9843;48.882;12.592;2022-09-30T09:00:03;10.47;;;7.00;;
19414;SDS011;9843;48.882;12.592;2022-09-30T09:02:36;5.10;;;4.70;;
19414;SDS011;9843;48.882;12.592;2022-09-30T09:05:10;5.20;;;4.70;;
19414;SDS011;9843;48.882;12.592;2022-09-30T09:07:44;7.43;;;5.67;;
19414;SDS011;9843;48.882;12.592;2022-09-30T09:10:18;5.03;;;4.10;;
19414;SDS011;9843;48.882;12.592;2022-09-30T09:12:57;7.57;;;5.33;;
19414;SDS011;9843;48.882;12.592;2022-09-30T09:15:33;6.60;;;5.33;;
19414;SDS011;9843;48.882;12.592;2022-09-30T09:18:13;5.60;;;3.63;;
19414;SDS011;9843;48.882;12.592;2022-09-30T09:21:07;6.10;;;4.50;;
19414;SDS011;9843;48.882;12.592;2022-09-30T09:23:44;5.07;;;3.30;;
19414;SDS011;9843;48.882;12.592;2022-09-30T09:26:11;5.57;;;4.30;;
19414;SDS011;9843;48.882;12.592;2022-09-30T09:28:43;8.50;;;3.93;;
19414;SDS011;9843;48.882;12.592;2022-09-30T09:31:16;6.77;;;3.33;;
19414;SDS011;9843;48.882;12.592;2022-09-30T09:33:45;6.75;;;4.57;;
19414;SDS011;9843;48.882;12.592;2022-09-30T09:36:15;11.15;;;4.13;;
19414;SDS011;9843;48.882;12.592;2022-09-30T09:38:56;6.43;;;4.10;;
19414;SDS011;9843;48.882;12.592;2022-09-30T09:41:32;6.68;;;3.75;;
19414;SDS011;9843;48.882;12.592;2022-09-30T09:44:07;4.72;;;3.30;;
19414;SDS011;9843;48.882;12.592;2022-09-30T09:46:40;3.22;;;2.65;;
19414;SDS011;9843;48.882;12.592;2022-09-30T09:55:06;5.82;;;2.35;;
19414;SDS011;9843;48.882;12.592;2022-09-30T09:57:36;9.00;;;2.33;;
19414;SDS011;9843;48.882;12.592;2022-09-30T10:00:06;3.55;;;2.63;;
19414;SDS011;9843;48.882;12.592;2022-09-30T10:02:59;3.47;;;2.95;;
19414;SDS011;9843;48.882;12.592;2022-09-30T10:05:33;8.82;;;2.83;;
19414;SDS011;9843;48.882;12.592;2022-09-30T10:08:07;5.13;;;1.90;;
19414;SDS011;9843;48.882;12.592;2022-09-30T10:10:41;4.03;;;1.58;;
19414;SDS011;9843;48.882;12.592;2022-09-30T10:13:18;3.03;;;1.80;;
19414;SDS011;9843;48.882;12.592;2022-09-30T10:15:48;2.75;;;2.13;;
19414;SDS011;9843;48.882;12.592;2022-09-30T10:18:19;2.63;;;1.55;;
19414;SDS011;9843;48.882;12.592;2022-09-30T10:20:51;1.58;;;1.13;;
19414;SDS011;9843;48.882;12.592;2022-09-30T10:23:20;2.22;;;1.45;;
19414;SDS011;9843;48.882;12.592;2022-09-30T10:25:54;2.40;;;1.30;;
19414;SDS011;9843;48.882;12.592;2022-09-30T10:28:24;3.65;;;1.00;;
19414;SDS011;9843;48.882;12.592;2022-09-30T10:30:55;5.35;;;2.22;;
19414;SDS011;9843;48.882;12.592;2022-09-30T10:33:25;3.05;;;1.02;;
19414;SDS011;9843;48.882;12.592;2022-09-30T10:35:56;2.97;;;1.20;;
19414;SDS011;9843;48.882;12.592;2022-09-30T10:38:28;4.13;;;2.05;;
19414;SDS011;9843;48.882;12.592;2022-09-30T10:40:58;3.80;;;1.58;;
19414;SDS011;9843;48.882;12.592;2022-09-30T10:43:27;1.95;;;1.25;;
19414;SDS011;9843;48.882;12.592;2022-09-30T10:45:58;2.00;;;1.40;;
19414;SDS011;9843;48.882;12.592;2022-09-30T10:48:28;2.45;;;1.77;;
19414;SDS011;9843;48.882;12.592;2022-09-30T10:50:59;1.70;;;1.23;;
19414;SDS011;9843;48.882;12.592;2022-09-30T10:53:26;2.42;;;1.05;;
19414;SDS011;9843;48.882;12.592;2022-09-30T10:55:55;0.95;;;0.75;;
19414;SDS011;9843;48.882;12.592;2022-09-30T10:58:23;3.35;;;1.00;;
19414;SDS011;9843;48.882;12.592;2022-09-30T11:00:58;3.03;;;1.30;;
19414;SDS011;9843;48.882;12.592;2022-09-30T11:03:33;3.50;;;1.30;;
19414;SDS011;9843;48.882;12.592;2022-09-30T11:06:06;1.58;;;0.88;;
19414;SDS011;9843;48.882;12.592;2022-09-30T11:08:40;3.92;;;1.33;;
19414;SDS011;9843;48.882;12.592;2022-09-30T11:11:16;2.15;;;1.33;;
19414;SDS011;9843;48.882;12.592;2022-09-30T11:13:47;2.47;;;1.30;;
19414;SDS011;9843;48.882;12.592;2022-09-30T11:16:24;2.10;;;1.13;;
19414;SDS011;9843;48.882;12.592;2022-09-30T11:18:58;7.45;;;1.35;;
19414;SDS011;9843;48.882;12.592;2022-09-30T11:21:32;1.77;;;0.70;;
19414;SDS011;9843;48.882;12.592;2022-09-30T11:24:02;2.60;;;0.93;;
19414;SDS011;9843;48.882;12.592;2022-09-30T11:26:42;2.75;;;1.50;;
19414;SDS011;9843;48.882;12.592;2022-09-30T11:29:28;1.63;;;1.48;;
19414;SDS011;9843;48.882;12.592;2022-09-30T11:32:10;0.70;;;0.70;;
19414;SDS011;9843;48.882;12.592;2022-09-30T11:34:48;0.57;;;0.47;;
19414;SDS011;9843;48.882;12.592;2022-09-30T11:37:26;5.13;;;0.93;;
19414;SDS011;9843;48.882;12.592;2022-09-30T11:40:02;5.45;;;0.80;;
19414;SDS011;9843;48.882;12.592;2022-09-30T11:42:55;1.42;;;0.70;;
19414;SDS011;9843;48.882;12.592;2022-09-30T11:45:30;1.25;;;0.73;;
19414;SDS011;9843;48.882;12.592;2022-09-30T11:48:15;2.95;;;1.33;;
19414;SDS011;9843;48.882;12.592;2022-09-30T11:50:51;1.05;;;0.43;;
19414;SDS011;9843;48.882;12.592;2022-09-30T11:53:28;5.00;;;0.60;;
19414;SDS011;9843;48.882;12.592;2022-09-30T11:56:08;0.90;;;0.50;;
19414;SDS011;9843;48.882;12.592;2022-09-30T11:58:46;0.77;;;0.60;;
19414;SDS011;9843;48.882;12.592;2022-09-30T12:01:17;0.68;;;0.60;;
19414;SDS011;9843;48.882;12.592;2022-09-30T12:03:50;1.73;;;1.05;;
19414;SDS011;9843;48.882;12.592;2022-09-30T12:06:24;2.88;;;1.42;;
19414;SDS011;9843;48.882;12.592;2022-09-30T12:08:55;2.78;;;1.48;;
19414;SDS011;9843;48.882;12.592;2022-09-30T12:11:29;0.77;;;0.60;;
19414;SDS011;9843;48.882;12.592;2022-09-30T12:14:03;0.60;;;0.60;;
19414;SDS011;9843;48.882;12.592;2022-09-30T12:16:37;0.73;;;0.65;;
19414;SDS011;9843;48.882;12.592;2022-09-30T12:19:11;1.80;;;1.08;;
19414;SDS011;9843;48.882;12.592;2022-09-30T12:21:43;2.40;;;1.10;;
19414;SDS011;9843;48.882;12.592;2022-09-30T12:24:18;1.23;;;1.13;;
19414;SDS011;9843;48.882;12.592;2022-09-30T12:26:49;1.92;;;1.73;;
19414;SDS011;9843;48.882;12.592;2022-09-30T12:29:17;2.97;;;1.17;;
19414;SDS011;9843;48.882;12.592;2022-09-30T12:32:15;1.20;;;1.10;;
19414;SDS011;9843;48.882;12.592;2022-09-30T12:35:11;1.60;;;1.40;;
19414;SDS011;9843;48.882;12.592;2022-09-30T12:38:01;3.40;;;1.30;;
19414;SDS011;9843;48.882;12.592;2022-09-30T12:40:44;1.40;;;1.30;;
19414;SDS011;9843;48.882;12.592;2022-09-30T12:43:38;1.50;;;1.13;;
19414;SDS011;9843;48.882;12.592;2022-09-30T12:46:25;1.40;;;1.30;;
19414;SDS011;9843;48.882;12.592;2022-09-30T12:49:14;1.20;;;1.10;;
19414;SDS011;9843;48.882;12.592;2022-09-30T12:51:47;1.73;;;1.47;;
19414;SDS011;9843;48.882;12.592;2022-09-30T12:54:17;2.50;;;1.83;;
19414;SDS011;9843;48.882;12.592;2022-09-30T12:56:51;4.30;;;1.30;;
19414;SDS011;9843;48.882;12.592;2022-09-30T12:59:23;2.77;;;1.87;;
19414;SDS011;9843;48.882;12.592;2022-09-30T13:01:52;2.97;;;2.23;;
19414;SDS011;9843;48.882;12.592;2022-09-30T13:04:30;5.93;;;1.60;;
19414;SDS011;9843;48.882;12.592;2022-09-30T13:07:08;1.70;;;1.60;;
19414;SDS011;9843;48.882;12.592;2022-09-30T13:09:56;1.50;;;1.40;;
19414;SDS011;9843;48.882;12.592;2022-09-30T13:12:26;2.40;;;1.80;;
19414;SDS011;9843;48.882;12.592;2022-09-30T13:15:20;2.20;;;2.00;;
19414;SDS011;9843;48.882;12.592;2022-09-30T13:21:23;1.73;;;1.63;;
19414;SDS011;9843;48.882;12.592;2022-09-30T13:23:52;1.23;;;1.17;;
19414;SDS011;9843;48.882;12.592;2022-09-30T13:26:33;8.00;;;1.50;;
19414;SDS011;9843;48.882;12.592;2022-09-30T13:32:07;2.60;;;2.27;;
19414;SDS011;9843;48.882;12.592;2022-09-30T13:34:51;4.30;;;1.47;;
19414;SDS011;9843;48.882;12.592;2022-09-30T13:37:35;6.93;;;2.17;;
19414;SDS011;9843;48.882;12.592;2022-09-30T13:40:05;2.57;;;1.93;;
19414;SDS011;9843;48.882;12.592;2022-09-30T13:42:46;3.70;;;1.87;;
19414;SDS011;9843;48.882;12.592;2022-09-30T13:45:20;1.93;;;1.83;;
19414;SDS011;9843;48.882;12.592;2022-09-30T13:47:56;3.63;;;2.00;;
19414;SDS011;9843;48.882;12.592;2022-09-30T13:50:34;1.90;;;1.80;;
19414;SDS011;9843;48.882;12.592;2022-09-30T13:53:05;6.97;;;2.53;;
19414;SDS011;9843;48.882;12.592;2022-09-30T13:55:40;2.77;;;1.90;;
19414;SDS011;9843;48.882;12.592;2022-09-30T13:58:15;2.63;;;1.87;;
19414;SDS011;9843;48.882;12.592;2022-09-30T14:01:01;4.73;;;4.33;;
19414;SDS011;9843;48.882;12.592;2022-09-30T14:03:38;6.37;;;4.50;;
19414;SDS011;9843;48.882;12.592;2022-09-30T14:06:20;3.63;;;3.30;;
19414;SDS011;9843;48.882;12.592;2022-09-30T14:09:02;2.97;;;1.93;;
19414;SDS011;9843;48.882;12.592;2022-09-30T14:11:46;6.93;;;3.90;;
19414;SDS011;9843;48.882;12.592;2022-09-30T14:14:34;6.33;;;2.77;;
19414;SDS011;9843;48.882;12.592;2022-09-30T14:17:20;2.10;;;2.00;;
19414;SDS011;9843;48.882;12.592;2022-09-30T14:20:15;1.67;;;1.57;;
19414;SDS011;9843;48.882;12.592;2022-09-30T14:22:59;2.20;;;2.10;;
19414;SDS011;9843;48.882;12.592;2022-09-30T14:25:28;5.67;;;1.70;;
19414;SDS011;9843;48.882;12.592;2022-09-30T14:28:01;3.97;;;2.93;;
19414;SDS011;9843;48.882;12.592;2022-09-30T14:30:33;4.70;;;3.40;;
19414;SDS011;9843;48.882;12.592;2022-09-30T14:33:08;2.23;;;1.93;;
19414;SDS011;9843;48.882;12.592;2022-09-30T14:35:36;2.37;;;2.10;;
19414;SDS011;9843;48.882;12.592;2022-09-30T14:38:06;3.13;;;2.77;;
19414;SDS011;9843;48.882;12.592;2022-09-30T14:40:35;2.10;;;1.97;;
19414;SDS011;9843;48.882;12.592;2022-09-30T14:43:06;5.80;;;2.87;;
19414;SDS011;9843;48.882;12.592;2022-09-30T14:45:40;7.43;;;3.87;;
19414;SDS011;9843;48.882;12.592;2022-09-30T14:48:10;2.40;;;2.20;;
19414;SDS011;9843;48.882;12.592;2022-09-30T14:50:42;3.63;;;2.20;;
19414;SDS011;9843;48.882;12.592;2022-09-30T14:53:24;3.90;;;2.07;;
19414;SDS011;9843;48.882;12.592;2022-09-30T14:55:52;2.27;;;1.83;;
19414;SDS011;9843;48.882;12.592;2022-09-30T14:58:21;2.50;;;2.23;;
19414;SDS011;9843;48.882;12.592;2022-09-30T15:00:55;2.20;;;2.00;;
19414;SDS011;9843;48.882;12.592;2022-09-30T15:03:26;4.13;;;3.23;;
19414;SDS011;9843;48.882;12.592;2022-09-30T15:05:54;2.30;;;2.10;;
19414;SDS011;9843;48.882;12.592;2022-09-30T15:08:22;2.30;;;1.90;;
19414;SDS011;9843;48.882;12.592;2022-09-30T15:10:50;2.50;;;2.13;;
19414;SDS011;9843;48.882;12.592;2022-09-30T15:13:21;2.00;;;1.90;;
19414;SDS011;9843;48.882;12.592;2022-09-30T15:15:52;2.47;;;2.20;;
19414;SDS011;9843;48.882;12.592;2022-09-30T15:18:23;3.87;;;2.50;;
19414;SDS011;9843;48.882;12.592;2022-09-30T15:20:52;3.53;;;3.23;;
19414;SDS011;9843;48.882;12.592;2022-09-30T15:23:23;3.80;;;2.53;;